sensor_id;sensor_type;location;lat;lon;timestamp;P1;durP1;ratioP1;P2;durP2;ratioP2
21354;SDS011;10835;50.148;19.760;2022-07-29T00:00:38;2.70;;;1.85;;
21354;SDS011;10835;50.148;19.760;2022-07-29T00:03:25;4.60;;;1.95;;
21354;SDS011;10835;50.148;19.760;2022-07-29T00:06:13;3.33;;;1.70;;
21354;SDS011;10835;50.148;19.760;2022-07-29T00:09:00;2.58;;;1.73;;
21354;SDS011;10835;50.148;19.760;2022-07-29T00:11:47;2.90;;;1.40;;
21354;SDS011;10835;50.148;19.760;2022-07-29T00:14:34;2.13;;;1.40;;
21354;SDS011;10835;50.148;19.760;2022-07-29T00:17:20;5.50;;;1.60;;
21354;SDS011;10835;50.148;19.760;2022-07-29T00:20:07;3.13;;;1.50;;
21354;SDS011;10835;50.148;19.760;2022-07-29T00:22:56;4.15;;;1.63;;
21354;SDS011;10835;50.148;19.760;2022-07-29T00:25:43;2.50;;;1.52;;
21354;SDS011;10835;50.148;19.760;2022-07-29T00:28:30;4.20;;;1.40;;
21354;SDS011;10835;50.148;19.760;2022-07-29T00:31:17;2.95;;;1.30;;
21354;SDS011;10835;50.148;19.760;2022-07-29T00:34:04;4.00;;;1.55;;
21354;SDS011;10835;50.148;19.760;2022-07-29T00:36:51;1.75;;;1.15;;
21354;SDS011;10835;50.148;19.760;2022-07-29T00:39:38;4.80;;;1.20;;
21354;SDS011;10835;50.148;19.760;2022-07-29T00:42:24;3.45;;;1.30;;
21354;SDS011;10835;50.148;19.760;2022-07-29T00:45:12;5.75;;;1.42;;
21354;SDS011;10835;50.148;19.760;2022-07-29T00:47:59;3.85;;;1.65;;
21354;SDS011;10835;50.148;19.760;2022-07-29T00:50:46;4.40;;;1.52;;
21354;SDS011;10835;50.148;19.760;2022-07-29T00:53:32;3.95;;;1.40;;
21354;SDS011;10835;50.148;19.760;2022-07-29T00:56:21;1.70;;;1.33;;
21354;SDS011;10835;50.148;19.760;2022-07-29T00:59:08;2.97;;;1.50;;
21354;SDS011;10835;50.148;19.760;2022-07-29T01:01:54;2.83;;;1.40;;
21354;SDS011;10835;50.148;19.760;2022-07-29T01:04:41;2.53;;;1.40;;
21354;SDS011;10835;50.148;19.760;2022-07-29T01:07:27;11.23;;;1.50;;
21354;SDS011;10835;50.148;19.760;2022-07-29T01:10:15;5.47;;;1.70;;
21354;SDS011;10835;50.148;19.760;2022-07-29T01:13:05;2.17;;;1.20;;
21354;SDS011;10835;50.148;19.760;2022-07-29T01:15:54;2.92;;;1.42;;
21354;SDS011;10835;50.148;19.760;2022-07-29T01:18:46;2.95;;;1.33;;
21354;SDS011;10835;50.148;19.760;2022-07-29T01:21:46;2.55;;;1.58;;
21354;SDS011;10835;50.148;19.760;2022-07-29T01:24:39;4.90;;;1.27;;
21354;SDS011;10835;50.148;19.760;2022-07-29T01:28:01;2.00;;;1.20;;
21354;SDS011;10835;50.148;19.760;2022-07-29T01:31:08;2.38;;;1.30;;
21354;SDS011;10835;50.148;19.760;2022-07-29T01:34:13;3.08;;;1.25;;
21354;SDS011;10835;50.148;19.760;2022-07-29T01:37:06;4.30;;;1.65;;
21354;SDS011;10835;50.148;19.760;2022-07-29T01:40:00;2.58;;;1.50;;
21354;SDS011;10835;50.148;19.760;2022-07-29T01:42:50;7.20;;;1.85;;
21354;SDS011;10835;50.148;19.760;2022-07-29T01:45:40;3.88;;;1.35;;
21354;SDS011;10835;50.148;19.760;2022-07-29T01:48:34;3.65;;;1.40;;
21354;SDS011;10835;50.148;19.760;2022-07-29T01:51:28;2.47;;;1.17;;
21354;SDS011;10835;50.148;19.760;2022-07-29T01:54:19;5.55;;;1.50;;
21354;SDS011;10835;50.148;19.760;2022-07-29T01:57:11;1.27;;;1.17;;
21354;SDS011;10835;50.148;19.760;2022-07-29T02:00:04;3.35;;;1.27;;
21354;SDS011;10835;50.148;19.760;2022-07-29T02:02:59;2.70;;;1.63;;
21354;SDS011;10835;50.148;19.760;2022-07-29T02:05:53;4.03;;;1.33;;
21354;SDS011;10835;50.148;19.760;2022-07-29T02:08:43;4.30;;;1.80;;
21354;SDS011;10835;50.148;19.760;2022-07-29T02:11:33;4.43;;;1.65;;
21354;SDS011;10835;50.148;19.760;2022-07-29T02:14:22;2.63;;;1.40;;
21354;SDS011;10835;50.148;19.760;2022-07-29T02:17:10;2.22;;;1.15;;
21354;SDS011;10835;50.148;19.760;2022-07-29T02:20:00;3.13;;;1.40;;
21354;SDS011;10835;50.148;19.760;2022-07-29T02:22:50;1.52;;;1.23;;
21354;SDS011;10835;50.148;19.760;2022-07-29T02:25:41;3.80;;;1.00;;
21354;SDS011;10835;50.148;19.760;2022-07-29T02:28:29;6.20;;;1.38;;
21354;SDS011;10835;50.148;19.760;2022-07-29T02:31:19;2.63;;;1.13;;
21354;SDS011;10835;50.148;19.760;2022-07-29T02:34:09;2.90;;;1.35;;
21354;SDS011;10835;50.148;19.760;2022-07-29T02:37:02;1.70;;;1.42;;
21354;SDS011;10835;50.148;19.760;2022-07-29T02:39:51;3.00;;;1.20;;
21354;SDS011;10835;50.148;19.760;2022-07-29T02:42:41;3.30;;;1.27;;
21354;SDS011;10835;50.148;19.760;2022-07-29T02:45:29;2.15;;;1.20;;
21354;SDS011;10835;50.148;19.760;2022-07-29T02:48:17;2.10;;;1.20;;
21354;SDS011;10835;50.148;19.760;2022-07-29T02:51:08;5.75;;;1.27;;
21354;SDS011;10835;50.148;19.760;2022-07-29T02:54:21;2.33;;;1.20;;
21354;SDS011;10835;50.148;19.760;2022-07-29T02:57:17;1.55;;;1.20;;
21354;SDS011;10835;50.148;19.760;2022-07-29T03:00:07;5.05;;;1.80;;
21354;SDS011;10835;50.148;19.760;2022-07-29T03:02:57;1.52;;;1.20;;
21354;SDS011;10835;50.148;19.760;2022-07-29T03:05:46;2.38;;;1.35;;
21354;SDS011;10835;50.148;19.760;2022-07-29T03:08:33;3.15;;;1.20;;
21354;SDS011;10835;50.148;19.760;2022-07-29T03:11:21;1.35;;;1.20;;
21354;SDS011;10835;50.148;19.760;2022-07-29T03:14:29;4.63;;;1.15;;
21354;SDS011;10835;50.148;19.760;2022-07-29T03:17:17;3.95;;;1.38;;
21354;SDS011;10835;50.148;19.760;2022-07-29T03:20:07;1.92;;;1.10;;
21354;SDS011;10835;50.148;19.760;2022-07-29T03:22:56;3.25;;;1.30;;
21354;SDS011;10835;50.148;19.760;2022-07-29T03:25:45;1.83;;;1.23;;
21354;SDS011;10835;50.148;19.760;2022-07-29T03:28:32;2.13;;;1.15;;
21354;SDS011;10835;50.148;19.760;2022-07-29T03:31:22;4.20;;;1.52;;
21354;SDS011;10835;50.148;19.760;2022-07-29T03:34:08;1.83;;;1.27;;
21354;SDS011;10835;50.148;19.760;2022-07-29T03:36:55;2.13;;;1.15;;
21354;SDS011;10835;50.148;19.760;2022-07-29T03:39:42;5.60;;;1.38;;
21354;SDS011;10835;50.148;19.760;2022-07-29T03:42:32;2.05;;;1.25;;
21354;SDS011;10835;50.148;19.760;2022-07-29T03:45:22;4.13;;;1.50;;
21354;SDS011;10835;50.148;19.760;2022-07-29T03:48:12;4.93;;;1.48;;
21354;SDS011;10835;50.148;19.760;2022-07-29T03:51:02;3.72;;;1.35;;
21354;SDS011;10835;50.148;19.760;2022-07-29T03:53:51;4.85;;;1.40;;
21354;SDS011;10835;50.148;19.760;2022-07-29T03:56:40;2.78;;;1.50;;
21354;SDS011;10835;50.148;19.760;2022-07-29T03:59:32;5.75;;;1.30;;
21354;SDS011;10835;50.148;19.760;2022-07-29T04:02:19;2.47;;;1.58;;
21354;SDS011;10835;50.148;19.760;2022-07-29T04:05:18;3.22;;;1.30;;
21354;SDS011;10835;50.148;19.760;2022-07-29T04:08:04;2.00;;;1.35;;
21354;SDS011;10835;50.148;19.760;2022-07-29T04:10:51;3.65;;;1.40;;
21354;SDS011;10835;50.148;19.760;2022-07-29T04:13:38;2.17;;;1.38;;
21354;SDS011;10835;50.148;19.760;2022-07-29T04:16:25;8.95;;;1.50;;
21354;SDS011;10835;50.148;19.760;2022-07-29T04:19:12;2.75;;;1.33;;
21354;SDS011;10835;50.148;19.760;2022-07-29T04:22:00;3.47;;;1.50;;
21354;SDS011;10835;50.148;19.760;2022-07-29T04:24:47;2.20;;;1.05;;
21354;SDS011;10835;50.148;19.760;2022-07-29T04:27:33;3.97;;;1.40;;
21354;SDS011;10835;50.148;19.760;2022-07-29T04:30:20;2.28;;;1.40;;
21354;SDS011;10835;50.148;19.760;2022-07-29T04:33:07;4.15;;;1.48;;
21354;SDS011;10835;50.148;19.760;2022-07-29T04:35:54;2.17;;;1.55;;
21354;SDS011;10835;50.148;19.760;2022-07-29T04:38:42;5.55;;;1.50;;
21354;SDS011;10835;50.148;19.760;2022-07-29T04:41:29;2.50;;;1.40;;
21354;SDS011;10835;50.148;19.760;2022-07-29T04:44:17;6.28;;;1.80;;
21354;SDS011;10835;50.148;19.760;2022-07-29T04:47:07;2.58;;;1.60;;
21354;SDS011;10835;50.148;19.760;2022-07-29T04:49:53;3.28;;;1.70;;
21354;SDS011;10835;50.148;19.760;2022-07-29T04:52:41;5.68;;;1.73;;
21354;SDS011;10835;50.148;19.760;2022-07-29T04:55:29;3.55;;;1.52;;
21354;SDS011;10835;50.148;19.760;2022-07-29T04:58:15;3.63;;;1.30;;
21354;SDS011;10835;50.148;19.760;2022-07-29T05:01:02;3.10;;;1.27;;
21354;SDS011;10835;50.148;19.760;2022-07-29T05:03:49;3.30;;;1.30;;
21354;SDS011;10835;50.148;19.760;2022-07-29T05:06:41;5.60;;;1.75;;
21354;SDS011;10835;50.148;19.760;2022-07-29T05:09:27;8.85;;;1.60;;
21354;SDS011;10835;50.148;19.760;2022-07-29T05:12:16;4.22;;;1.50;;
21354;SDS011;10835;50.148;19.760;2022-07-29T05:15:03;3.25;;;1.63;;
21354;SDS011;10835;50.148;19.760;2022-07-29T05:17:51;4.13;;;1.80;;
21354;SDS011;10835;50.148;19.760;2022-07-29T05:20:39;6.03;;;1.45;;
21354;SDS011;10835;50.148;19.760;2022-07-29T05:23:26;2.33;;;1.25;;
21354;SDS011;10835;50.148;19.760;2022-07-29T05:26:12;2.72;;;1.30;;
21354;SDS011;10835;50.148;19.760;2022-07-29T05:29:01;3.20;;;1.48;;
21354;SDS011;10835;50.148;19.760;2022-07-29T05:31:47;4.32;;;1.52;;
21354;SDS011;10835;50.148;19.760;2022-07-29T05:34:35;2.95;;;1.60;;
21354;SDS011;10835;50.148;19.760;2022-07-29T05:37:35;6.93;;;1.30;;
21354;SDS011;10835;50.148;19.760;2022-07-29T05:40:22;1.60;;;1.10;;
21354;SDS011;10835;50.148;19.760;2022-07-29T05:43:09;2.80;;;1.30;;
21354;SDS011;10835;50.148;19.760;2022-07-29T05:45:56;4.10;;;1.20;;
21354;SDS011;10835;50.148;19.760;2022-07-29T05:48:43;1.88;;;1.33;;
21354;SDS011;10835;50.148;19.760;2022-07-29T05:51:30;3.45;;;1.75;;
21354;SDS011;10835;50.148;19.760;2022-07-29T05:54:17;3.70;;;1.35;;
21354;SDS011;10835;50.148;19.760;2022-07-29T05:57:04;3.35;;;1.35;;
21354;SDS011;10835;50.148;19.760;2022-07-29T05:59:51;1.60;;;1.27;;
21354;SDS011;10835;50.148;19.760;2022-07-29T06:02:39;1.63;;;1.38;;
21354;SDS011;10835;50.148;19.760;2022-07-29T06:05:26;1.80;;;1.25;;
21354;SDS011;10835;50.148;19.760;2022-07-29T06:08:13;2.13;;;1.13;;
21354;SDS011;10835;50.148;19.760;2022-07-29T06:11:00;1.95;;;1.10;;
21354;SDS011;10835;50.148;19.760;2022-07-29T06:13:47;4.55;;;1.83;;
21354;SDS011;10835;50.148;19.760;2022-07-29T06:16:33;3.80;;;1.48;;
21354;SDS011;10835;50.148;19.760;2022-07-29T06:19:22;3.88;;;1.60;;
21354;SDS011;10835;50.148;19.760;2022-07-29T06:22:08;2.22;;;1.50;;
21354;SDS011;10835;50.148;19.760;2022-07-29T06:24:55;2.78;;;1.60;;
21354;SDS011;10835;50.148;19.760;2022-07-29T06:27:41;4.57;;;1.60;;
21354;SDS011;10835;50.148;19.760;2022-07-29T06:30:28;2.78;;;1.42;;
21354;SDS011;10835;50.148;19.760;2022-07-29T06:33:18;1.75;;;1.10;;
21354;SDS011;10835;50.148;19.760;2022-07-29T06:36:07;3.75;;;1.80;;
21354;SDS011;10835;50.148;19.760;2022-07-29T06:38:56;2.42;;;1.38;;
21354;SDS011;10835;50.148;19.760;2022-07-29T06:41:46;1.58;;;1.20;;
21354;SDS011;10835;50.148;19.760;2022-07-29T06:44:33;3.42;;;1.63;;
21354;SDS011;10835;50.148;19.760;2022-07-29T06:47:20;1.95;;;1.48;;
21354;SDS011;10835;50.148;19.760;2022-07-29T06:50:07;2.97;;;1.35;;
21354;SDS011;10835;50.148;19.760;2022-07-29T06:52:58;2.92;;;1.48;;
21354;SDS011;10835;50.148;19.760;2022-07-29T06:55:44;3.25;;;1.40;;
21354;SDS011;10835;50.148;19.760;2022-07-29T06:58:31;3.72;;;1.83;;
21354;SDS011;10835;50.148;19.760;2022-07-29T07:01:18;4.28;;;1.13;;
21354;SDS011;10835;50.148;19.760;2022-07-29T07:04:06;3.97;;;1.65;;
21354;SDS011;10835;50.148;19.760;2022-07-29T07:06:54;4.88;;;1.50;;
21354;SDS011;10835;50.148;19.760;2022-07-29T07:09:42;2.83;;;1.60;;
21354;SDS011;10835;50.148;19.760;2022-07-29T07:12:29;1.77;;;1.40;;
21354;SDS011;10835;50.148;19.760;2022-07-29T07:15:16;4.35;;;1.70;;
21354;SDS011;10835;50.148;19.760;2022-07-29T07:18:22;9.68;;;1.48;;
21354;SDS011;10835;50.148;19.760;2022-07-29T07:21:09;6.57;;;1.83;;
21354;SDS011;10835;50.148;19.760;2022-07-29T07:24:02;2.92;;;1.52;;
21354;SDS011;10835;50.148;19.760;2022-07-29T07:26:51;1.98;;;1.38;;
21354;SDS011;10835;50.148;19.760;2022-07-29T07:29:38;2.85;;;1.77;;
21354;SDS011;10835;50.148;19.760;2022-07-29T07:32:28;2.88;;;1.63;;
21354;SDS011;10835;50.148;19.760;2022-07-29T07:35:15;5.05;;;1.55;;
21354;SDS011;10835;50.148;19.760;2022-07-29T07:38:01;3.28;;;1.40;;
21354;SDS011;10835;50.148;19.760;2022-07-29T07:40:48;5.10;;;1.60;;
21354;SDS011;10835;50.148;19.760;2022-07-29T07:43:38;2.45;;;1.50;;
21354;SDS011;10835;50.148;19.760;2022-07-29T07:46:25;2.83;;;1.77;;
21354;SDS011;10835;50.148;19.760;2022-07-29T07:49:12;1.92;;;1.60;;
21354;SDS011;10835;50.148;19.760;2022-07-29T07:51:59;6.90;;;2.00;;
21354;SDS011;10835;50.148;19.760;2022-07-29T07:54:45;2.67;;;1.60;;
21354;SDS011;10835;50.148;19.760;2022-07-29T07:57:32;3.10;;;1.90;;
21354;SDS011;10835;50.148;19.760;2022-07-29T08:00:21;2.53;;;1.65;;
21354;SDS011;10835;50.148;19.760;2022-07-29T08:03:08;4.18;;;2.05;;
21354;SDS011;10835;50.148;19.760;2022-07-29T08:06:01;7.45;;;1.67;;
21354;SDS011;10835;50.148;19.760;2022-07-29T08:08:48;7.15;;;1.55;;
21354;SDS011;10835;50.148;19.760;2022-07-29T08:11:36;2.17;;;1.60;;
21354;SDS011;10835;50.148;19.760;2022-07-29T08:14:36;3.10;;;1.48;;
21354;SDS011;10835;50.148;19.760;2022-07-29T08:17:24;2.10;;;1.50;;
21354;SDS011;10835;50.148;19.760;2022-07-29T08:20:11;1.80;;;1.45;;
21354;SDS011;10835;50.148;19.760;2022-07-29T08:22:58;2.80;;;1.75;;
21354;SDS011;10835;50.148;19.760;2022-07-29T08:25:45;3.42;;;1.40;;
21354;SDS011;10835;50.148;19.760;2022-07-29T08:28:34;8.13;;;1.88;;
21354;SDS011;10835;50.148;19.760;2022-07-29T08:31:20;3.95;;;1.50;;
21354;SDS011;10835;50.148;19.760;2022-07-29T08:34:08;5.03;;;1.60;;
21354;SDS011;10835;50.148;19.760;2022-07-29T08:36:55;1.77;;;1.23;;
21354;SDS011;10835;50.148;19.760;2022-07-29T08:39:42;3.97;;;1.40;;
21354;SDS011;10835;50.148;19.760;2022-07-29T08:42:31;4.93;;;1.60;;
21354;SDS011;10835;50.148;19.760;2022-07-29T08:45:21;6.00;;;1.65;;
21354;SDS011;10835;50.148;19.760;2022-07-29T08:48:09;3.90;;;1.35;;
21354;SDS011;10835;50.148;19.760;2022-07-29T08:50:57;1.60;;;1.50;;
21354;SDS011;10835;50.148;19.760;2022-07-29T08:53:45;1.85;;;1.20;;
21354;SDS011;10835;50.148;19.760;2022-07-29T08:56:34;3.55;;;1.40;;
21354;SDS011;10835;50.148;19.760;2022-07-29T08:59:22;5.65;;;1.70;;
21354;SDS011;10835;50.148;19.760;2022-07-29T09:02:18;1.40;;;1.30;;
21354;SDS011;10835;50.148;19.760;2022-07-29T09:05:07;3.20;;;1.50;;
21354;SDS011;10835;50.148;19.760;2022-07-29T09:07:55;4.10;;;1.50;;
21354;SDS011;10835;50.148;19.760;2022-07-29T09:10:42;1.98;;;1.30;;
21354;SDS011;10835;50.148;19.760;2022-07-29T09:13:30;3.63;;;1.23;;
21354;SDS011;10835;50.148;19.760;2022-07-29T09:16:16;8.13;;;1.42;;
21354;SDS011;10835;50.148;19.760;2022-07-29T09:19:24;5.95;;;1.77;;
21354;SDS011;10835;50.148;19.760;2022-07-29T09:22:13;4.03;;;1.40;;
21354;SDS011;10835;50.148;19.760;2022-07-29T09:25:32;3.15;;;1.30;;
21354;SDS011;10835;50.148;19.760;2022-07-29T09:28:19;2.65;;;1.52;;
21354;SDS011;10835;50.148;19.760;2022-07-29T09:31:08;4.88;;;1.27;;
21354;SDS011;10835;50.148;19.760;2022-07-29T09:33:55;2.50;;;1.40;;
21354;SDS011;10835;50.148;19.760;2022-07-29T09:36:45;1.67;;;1.45;;
21354;SDS011;10835;50.148;19.760;2022-07-29T09:39:35;2.20;;;1.55;;
21354;SDS011;10835;50.148;19.760;2022-07-29T09:42:31;4.20;;;1.50;;
21354;SDS011;10835;50.148;19.760;2022-07-29T09:45:28;2.35;;;1.40;;
21354;SDS011;10835;50.148;19.760;2022-07-29T09:48:17;4.00;;;1.52;;
21354;SDS011;10835;50.148;19.760;2022-07-29T09:51:05;2.40;;;1.67;;
21354;SDS011;10835;50.148;19.760;2022-07-29T09:57:08;2.88;;;1.60;;
21354;SDS011;10835;50.148;19.760;2022-07-29T10:00:17;3.28;;;1.30;;
21354;SDS011;10835;50.148;19.760;2022-07-29T10:03:04;3.97;;;1.45;;
21354;SDS011;10835;50.148;19.760;2022-07-29T10:06:04;5.20;;;1.45;;
21354;SDS011;10835;50.148;19.760;2022-07-29T10:08:52;2.58;;;1.50;;
21354;SDS011;10835;50.148;19.760;2022-07-29T10:11:39;3.33;;;1.60;;
21354;SDS011;10835;50.148;19.760;2022-07-29T10:14:41;1.67;;;1.42;;
21354;SDS011;10835;50.148;19.760;2022-07-29T10:17:29;2.45;;;1.58;;
21354;SDS011;10835;50.148;19.760;2022-07-29T10:20:16;8.55;;;1.70;;
21354;SDS011;10835;50.148;19.760;2022-07-29T10:23:03;4.20;;;1.60;;
21354;SDS011;10835;50.148;19.760;2022-07-29T10:25:51;1.77;;;1.67;;
21354;SDS011;10835;50.148;19.760;2022-07-29T10:28:37;2.90;;;1.60;;
21354;SDS011;10835;50.148;19.760;2022-07-29T10:31:26;4.45;;;1.45;;
21354;SDS011;10835;50.148;19.760;2022-07-29T10:34:23;2.53;;;1.60;;
21354;SDS011;10835;50.148;19.760;2022-07-29T10:37:23;9.95;;;1.80;;
21354;SDS011;10835;50.148;19.760;2022-07-29T10:40:22;2.65;;;1.55;;
21354;SDS011;10835;50.148;19.760;2022-07-29T10:43:53;5.72;;;1.65;;
21354;SDS011;10835;50.148;19.760;2022-07-29T10:46:44;2.58;;;1.70;;
21354;SDS011;10835;50.148;19.760;2022-07-29T10:49:33;2.58;;;1.55;;
21354;SDS011;10835;50.148;19.760;2022-07-29T10:52:20;2.05;;;1.60;;
21354;SDS011;10835;50.148;19.760;2022-07-29T10:58:45;3.40;;;1.52;;
21354;SDS011;10835;50.148;19.760;2022-07-29T11:05:30;3.38;;;1.58;;
21354;SDS011;10835;50.148;19.760;2022-07-29T11:08:43;1.92;;;1.60;;
21354;SDS011;10835;50.148;19.760;2022-07-29T11:11:31;2.70;;;1.45;;
21354;SDS011;10835;50.148;19.760;2022-07-29T11:14:19;3.47;;;1.52;;
21354;SDS011;10835;50.148;19.760;2022-07-29T11:20:51;3.30;;;1.63;;
21354;SDS011;10835;50.148;19.760;2022-07-29T11:23:40;2.90;;;1.70;;
21354;SDS011;10835;50.148;19.760;2022-07-29T11:26:29;2.88;;;1.70;;
21354;SDS011;10835;50.148;19.760;2022-07-29T11:29:18;5.07;;;1.80;;
21354;SDS011;10835;50.148;19.760;2022-07-29T11:32:08;2.05;;;1.60;;
21354;SDS011;10835;50.148;19.760;2022-07-29T11:35:11;3.70;;;1.85;;
21354;SDS011;10835;50.148;19.760;2022-07-29T11:41:19;5.95;;;1.45;;
21354;SDS011;10835;50.148;19.760;2022-07-29T11:44:07;1.83;;;1.60;;
21354;SDS011;10835;50.148;19.760;2022-07-29T11:46:54;3.40;;;1.75;;
21354;SDS011;10835;50.148;19.760;2022-07-29T11:49:41;2.85;;;1.70;;
21354;SDS011;10835;50.148;19.760;2022-07-29T11:52:32;1.95;;;1.50;;
21354;SDS011;10835;50.148;19.760;2022-07-29T11:55:35;2.35;;;1.70;;
21354;SDS011;10835;50.148;19.760;2022-07-29T11:58:36;2.00;;;1.75;;
21354;SDS011;10835;50.148;19.760;2022-07-29T12:01:24;3.55;;;1.67;;
21354;SDS011;10835;50.148;19.760;2022-07-29T12:04:11;2.20;;;1.90;;
21354;SDS011;10835;50.148;19.760;2022-07-29T12:06:58;2.47;;;1.80;;
21354;SDS011;10835;50.148;19.760;2022-07-29T12:09:49;2.83;;;1.90;;
21354;SDS011;10835;50.148;19.760;2022-07-29T12:12:42;2.85;;;1.55;;
21354;SDS011;10835;50.148;19.760;2022-07-29T12:15:38;4.70;;;1.88;;
21354;SDS011;10835;50.148;19.760;2022-07-29T12:18:31;6.38;;;1.88;;
21354;SDS011;10835;50.148;19.760;2022-07-29T12:21:18;3.50;;;2.53;;
21354;SDS011;10835;50.148;19.760;2022-07-29T12:24:09;3.13;;;2.00;;
21354;SDS011;10835;50.148;19.760;2022-07-29T12:26:58;10.52;;;2.05;;
21354;SDS011;10835;50.148;19.760;2022-07-29T12:29:55;7.55;;;2.17;;
21354;SDS011;10835;50.148;19.760;2022-07-29T12:32:43;2.03;;;1.73;;
21354;SDS011;10835;50.148;19.760;2022-07-29T12:35:31;2.38;;;1.90;;
21354;SDS011;10835;50.148;19.760;2022-07-29T12:38:20;5.70;;;2.92;;
21354;SDS011;10835;50.148;19.760;2022-07-29T12:41:07;2.85;;;2.17;;
21354;SDS011;10835;50.148;19.760;2022-07-29T12:43:54;14.68;;;9.68;;
21354;SDS011;10835;50.148;19.760;2022-07-29T12:46:43;2.72;;;2.35;;
21354;SDS011;10835;50.148;19.760;2022-07-29T12:49:33;4.88;;;1.95;;
21354;SDS011;10835;50.148;19.760;2022-07-29T12:52:26;6.78;;;3.15;;
21354;SDS011;10835;50.148;19.760;2022-07-29T12:55:13;16.45;;;6.30;;
21354;SDS011;10835;50.148;19.760;2022-07-29T12:58:01;4.78;;;3.53;;
21354;SDS011;10835;50.148;19.760;2022-07-29T13:00:57;5.20;;;3.10;;
21354;SDS011;10835;50.148;19.760;2022-07-29T13:03:52;2.75;;;2.10;;
21354;SDS011;10835;50.148;19.760;2022-07-29T13:06:44;4.38;;;2.20;;
21354;SDS011;10835;50.148;19.760;2022-07-29T13:09:40;3.35;;;2.08;;
21354;SDS011;10835;50.148;19.760;2022-07-29T13:12:28;3.03;;;2.10;;
21354;SDS011;10835;50.148;19.760;2022-07-29T13:15:15;5.57;;;2.13;;
21354;SDS011;10835;50.148;19.760;2022-07-29T13:18:02;6.38;;;2.10;;
21354;SDS011;10835;50.148;19.760;2022-07-29T13:20:52;2.80;;;2.05;;
21354;SDS011;10835;50.148;19.760;2022-07-29T13:23:39;3.05;;;2.22;;
21354;SDS011;10835;50.148;19.760;2022-07-29T13:26:25;2.28;;;1.75;;
21354;SDS011;10835;50.148;19.760;2022-07-29T13:29:14;3.88;;;1.80;;
21354;SDS011;10835;50.148;19.760;2022-07-29T13:32:01;3.50;;;2.30;;
21354;SDS011;10835;50.148;19.760;2022-07-29T13:34:49;3.58;;;1.80;;
21354;SDS011;10835;50.148;19.760;2022-07-29T13:37:37;2.20;;;1.77;;
21354;SDS011;10835;50.148;19.760;2022-07-29T13:40:24;4.70;;;2.20;;
21354;SDS011;10835;50.148;19.760;2022-07-29T13:43:11;1.80;;;1.70;;
21354;SDS011;10835;50.148;19.760;2022-07-29T13:45:58;2.58;;;1.90;;
21354;SDS011;10835;50.148;19.760;2022-07-29T13:48:45;2.88;;;2.00;;
21354;SDS011;10835;50.148;19.760;2022-07-29T13:51:31;3.67;;;1.85;;
21354;SDS011;10835;50.148;19.760;2022-07-29T13:54:20;3.17;;;2.03;;
21354;SDS011;10835;50.148;19.760;2022-07-29T13:57:06;3.35;;;2.00;;
21354;SDS011;10835;50.148;19.760;2022-07-29T13:59:53;4.47;;;2.28;;
21354;SDS011;10835;50.148;19.760;2022-07-29T14:02:40;7.60;;;2.10;;
21354;SDS011;10835;50.148;19.760;2022-07-29T14:05:27;2.03;;;1.83;;
21354;SDS011;10835;50.148;19.760;2022-07-29T14:08:14;4.90;;;2.00;;
21354;SDS011;10835;50.148;19.760;2022-07-29T14:11:02;4.90;;;2.05;;
21354;SDS011;10835;50.148;19.760;2022-07-29T14:13:49;3.20;;;1.92;;
21354;SDS011;10835;50.148;19.760;2022-07-29T14:16:36;4.10;;;1.98;;
21354;SDS011;10835;50.148;19.760;2022-07-29T14:19:31;1.98;;;1.80;;
21354;SDS011;10835;50.148;19.760;2022-07-29T14:22:20;2.75;;;1.77;;
21354;SDS011;10835;50.148;19.760;2022-07-29T14:25:10;3.25;;;2.33;;
21354;SDS011;10835;50.148;19.760;2022-07-29T14:28:00;2.72;;;2.10;;
21354;SDS011;10835;50.148;19.760;2022-07-29T14:30:47;5.32;;;1.80;;
21354;SDS011;10835;50.148;19.760;2022-07-29T14:33:34;4.20;;;2.00;;
21354;SDS011;10835;50.148;19.760;2022-07-29T14:36:21;3.25;;;1.80;;
21354;SDS011;10835;50.148;19.760;2022-07-29T14:39:08;5.90;;;2.25;;
21354;SDS011;10835;50.148;19.760;2022-07-29T14:41:55;4.05;;;2.13;;
21354;SDS011;10835;50.148;19.760;2022-07-29T14:44:44;2.45;;;1.83;;
21354;SDS011;10835;50.148;19.760;2022-07-29T14:47:33;3.80;;;2.05;;
21354;SDS011;10835;50.148;19.760;2022-07-29T14:50:20;2.97;;;1.83;;
21354;SDS011;10835;50.148;19.760;2022-07-29T14:53:16;2.42;;;1.90;;
21354;SDS011;10835;50.148;19.760;2022-07-29T14:56:03;2.22;;;1.95;;
21354;SDS011;10835;50.148;19.760;2022-07-29T14:59:10;2.80;;;1.67;;
21354;SDS011;10835;50.148;19.760;2022-07-29T15:01:58;2.28;;;2.00;;
21354;SDS011;10835;50.148;19.760;2022-07-29T15:04:46;4.13;;;2.05;;
21354;SDS011;10835;50.148;19.760;2022-07-29T15:07:36;7.07;;;2.00;;
21354;SDS011;10835;50.148;19.760;2022-07-29T15:10:23;2.85;;;1.95;;
21354;SDS011;10835;50.148;19.760;2022-07-29T15:13:10;3.55;;;2.05;;
21354;SDS011;10835;50.148;19.760;2022-07-29T15:15:58;2.33;;;2.10;;
21354;SDS011;10835;50.148;19.760;2022-07-29T15:18:46;5.60;;;2.10;;
21354;SDS011;10835;50.148;19.760;2022-07-29T15:21:33;3.83;;;2.10;;
21354;SDS011;10835;50.148;19.760;2022-07-29T15:24:32;2.47;;;1.95;;
21354;SDS011;10835;50.148;19.760;2022-07-29T15:27:19;3.58;;;1.80;;
21354;SDS011;10835;50.148;19.760;2022-07-29T15:30:07;4.13;;;2.50;;
21354;SDS011;10835;50.148;19.760;2022-07-29T15:33:14;2.65;;;2.00;;
21354;SDS011;10835;50.148;19.760;2022-07-29T15:36:03;4.55;;;2.10;;
21354;SDS011;10835;50.148;19.760;2022-07-29T15:38:51;3.30;;;1.95;;
21354;SDS011;10835;50.148;19.760;2022-07-29T15:41:39;2.08;;;1.80;;
21354;SDS011;10835;50.148;19.760;2022-07-29T15:44:26;2.60;;;2.10;;
21354;SDS011;10835;50.148;19.760;2022-07-29T15:47:13;5.05;;;2.20;;
21354;SDS011;10835;50.148;19.760;2022-07-29T15:50:00;2.63;;;1.85;;
21354;SDS011;10835;50.148;19.760;2022-07-29T15:52:48;2.38;;;2.00;;
21354;SDS011;10835;50.148;19.760;2022-07-29T15:55:35;2.33;;;1.63;;
21354;SDS011;10835;50.148;19.760;2022-07-29T15:58:22;2.60;;;2.10;;
21354;SDS011;10835;50.148;19.760;2022-07-29T16:01:09;3.70;;;2.22;;
21354;SDS011;10835;50.148;19.760;2022-07-29T16:03:56;5.30;;;2.08;;
21354;SDS011;10835;50.148;19.760;2022-07-29T16:06:43;6.05;;;2.10;;
21354;SDS011;10835;50.148;19.760;2022-07-29T16:09:33;3.00;;;2.22;;
21354;SDS011;10835;50.148;19.760;2022-07-29T16:12:19;3.38;;;1.95;;
21354;SDS011;10835;50.148;19.760;2022-07-29T16:15:06;3.72;;;2.47;;
21354;SDS011;10835;50.148;19.760;2022-07-29T16:17:55;3.15;;;2.33;;
21354;SDS011;10835;50.148;19.760;2022-07-29T16:20:41;3.80;;;2.47;;
21354;SDS011;10835;50.148;19.760;2022-07-29T16:23:29;5.10;;;2.45;;
21354;SDS011;10835;50.148;19.760;2022-07-29T16:26:17;3.78;;;2.30;;
21354;SDS011;10835;50.148;19.760;2022-07-29T16:29:04;12.38;;;3.50;;
21354;SDS011;10835;50.148;19.760;2022-07-29T16:31:51;15.60;;;4.10;;
21354;SDS011;10835;50.148;19.760;2022-07-29T16:34:41;16.75;;;5.07;;
21354;SDS011;10835;50.148;19.760;2022-07-29T16:37:27;7.13;;;3.45;;
21354;SDS011;10835;50.148;19.760;2022-07-29T16:40:17;9.30;;;4.25;;
21354;SDS011;10835;50.148;19.760;2022-07-29T16:43:05;7.47;;;4.38;;
21354;SDS011;10835;50.148;19.760;2022-07-29T16:45:52;5.15;;;4.22;;
21354;SDS011;10835;50.148;19.760;2022-07-29T16:48:39;8.30;;;4.85;;
21354;SDS011;10835;50.148;19.760;2022-07-29T16:51:26;6.30;;;4.28;;
21354;SDS011;10835;50.148;19.760;2022-07-29T16:54:14;5.20;;;3.67;;
21354;SDS011;10835;50.148;19.760;2022-07-29T16:57:00;4.85;;;3.92;;
21354;SDS011;10835;50.148;19.760;2022-07-29T16:59:48;6.95;;;3.75;;
21354;SDS011;10835;50.148;19.760;2022-07-29T17:02:36;6.85;;;3.38;;